sensor_id;sensor_type;location;lat;lon;timestamp;temperature;humidity
6956;DHT22;50345;51.136;16.886;2023-04-05T00:00:39;0.30;99.90
6956;DHT22;50345;51.136;16.886;2023-04-05T00:03:05;0.30;99.90
6956;DHT22;50345;51.136;16.886;2023-04-05T00:05:31;0.30;99.90
6956;DHT22;50345;51.136;16.886;2023-04-05T00:07:59;0.30;99.90
6956;DHT22;50345;51.136;16.886;2023-04-05T00:10:30;0.30;99.90
6956;DHT22;50345;51.136;16.886;2023-04-05T00:12:59;0.40;99.90
6956;DHT22;50345;51.136;16.886;2023-04-05T00:15:26;0.40;99.90
6956;DHT22;50345;51.136;16.886;2023-04-05T00:17:52;0.50;99.90
6956;DHT22;50345;51.136;16.886;2023-04-05T00:20:18;0.60;99.90
6956;DHT22;50345;51.136;16.886;2023-04-05T00:22:44;0.60;99.90
6956;DHT22;50345;51.136;16.886;2023-04-05T00:25:11;0.60;99.90
6956;DHT22;50345;51.136;16.886;2023-04-05T00:27:38;0.70;99.90
6956;DHT22;50345;51.136;16.886;2023-04-05T00:30:04;0.80;99.90
6956;DHT22;50345;51.136;16.886;2023-04-05T00:32:30;0.90;99.90
6956;DHT22;50345;51.136;16.886;2023-04-05T00:34:56;1.00;99.90
6956;DHT22;50345;51.136;16.886;2023-04-05T00:37:21;1.10;99.90
6956;DHT22;50345;51.136;16.886;2023-04-05T00:39:47;1.20;99.90
6956;DHT22;50345;51.136;16.886;2023-04-05T00:42:13;1.30;99.90
6956;DHT22;50345;51.136;16.886;2023-04-05T00:44:39;1.30;99.90
6956;DHT22;50345;51.136;16.886;2023-04-05T00:47:05;1.30;99.90
6956;DHT22;50345;51.136;16.886;2023-04-05T00:49:33;1.30;99.90
6956;DHT22;50345;51.136;16.886;2023-04-05T00:51:59;1.30;99.90
6956;DHT22;50345;51.136;16.886;2023-04-05T00:54:25;1.20;99.90
6956;DHT22;50345;51.136;16.886;2023-04-05T00:56:54;1.20;99.90
6956;DHT22;50345;51.136;16.886;2023-04-05T00:59:20;1.10;99.90
6956;DHT22;50345;51.136;16.886;2023-04-05T01:01:49;1.00;99.90
6956;DHT22;50345;51.136;16.886;2023-04-05T01:04:24;0.90;99.90
6956;DHT22;50345;51.136;16.886;2023-04-05T01:07:06;0.80;99.90
6956;DHT22;50345;51.136;16.886;2023-04-05T01:09:44;0.80;99.90
6956;DHT22;50345;51.136;16.886;2023-04-05T01:12:16;0.70;99.90
6956;DHT22;50345;51.136;16.886;2023-04-05T01:14:48;0.60;99.90
6956;DHT22;50345;51.136;16.886;2023-04-05T01:17:17;0.50;99.90
6956;DHT22;50345;51.136;16.886;2023-04-05T01:19:58;0.50;99.90
6956;DHT22;50345;51.136;16.886;2023-04-05T01:25:44;0.40;99.90
6956;DHT22;50345;51.136;16.886;2023-04-05T01:31:31;0.30;99.90
6956;DHT22;50345;51.136;16.886;2023-04-05T01:36:48;0.20;99.90
6956;DHT22;50345;51.136;16.886;2023-04-05T01:39:16;0.20;99.90
6956;DHT22;50345;51.136;16.886;2023-04-05T01:41:44;0.20;99.90
6956;DHT22;50345;51.136;16.886;2023-04-05T01:44:10;0.10;99.90
6956;DHT22;50345;51.136;16.886;2023-04-05T01:46:36;0.10;99.90
6956;DHT22;50345;51.136;16.886;2023-04-05T01:49:01;0.10;99.90
6956;DHT22;50345;51.136;16.886;2023-04-05T01:51:27;0.10;99.90
6956;DHT22;50345;51.136;16.886;2023-04-05T01:53:53;0.10;99.90
6956;DHT22;50345;51.136;16.886;2023-04-05T01:56:18;0.10;99.90
6956;DHT22;50345;51.136;16.886;2023-04-05T01:58:45;0.10;99.90
6956;DHT22;50345;51.136;16.886;2023-04-05T02:01:11;0.00;99.90
6956;DHT22;50345;51.136;16.886;2023-04-05T02:03:36;0.00;99.90
6956;DHT22;50345;51.136;16.886;2023-04-05T02:06:02;0.00;99.90
6956;DHT22;50345;51.136;16.886;2023-04-05T02:08:28;0.00;99.90
6956;DHT22;50345;51.136;16.886;2023-04-05T02:10:53;-0.10;99.90
6956;DHT22;50345;51.136;16.886;2023-04-05T02:13:19;-0.10;99.90
6956;DHT22;50345;51.136;16.886;2023-04-05T02:15:49;-0.10;99.90
6956;DHT22;50345;51.136;16.886;2023-04-05T02:18:15;-0.10;99.90
6956;DHT22;50345;51.136;16.886;2023-04-05T02:20:49;-0.10;99.90
6956;DHT22;50345;51.136;16.886;2023-04-05T02:23:16;-0.20;99.90
6956;DHT22;50345;51.136;16.886;2023-04-05T02:25:42;-0.20;99.90
6956;DHT22;50345;51.136;16.886;2023-04-05T02:28:08;-0.20;99.90
6956;DHT22;50345;51.136;16.886;2023-04-05T02:30:33;-0.20;99.90
6956;DHT22;50345;51.136;16.886;2023-04-05T02:32:59;-0.20;99.90
6956;DHT22;50345;51.136;16.886;2023-04-05T02:35:26;-0.30;99.90
6956;DHT22;50345;51.136;16.886;2023-04-05T02:37:52;-0.30;99.90
6956;DHT22;50345;51.136;16.886;2023-04-05T02:40:17;-0.30;99.90
6956;DHT22;50345;51.136;16.886;2023-04-05T02:42:43;-0.30;99.90
6956;DHT22;50345;51.136;16.886;2023-04-05T02:45:09;-0.30;99.90
6956;DHT22;50345;51.136;16.886;2023-04-05T02:47:34;-0.30;99.90
6956;DHT22;50345;51.136;16.886;2023-04-05T02:50:00;-0.30;99.90
6956;DHT22;50345;51.136;16.886;2023-04-05T02:52:26;-0.30;99.90
6956;DHT22;50345;51.136;16.886;2023-04-05T02:54:52;-0.30;99.90
6956;DHT22;50345;51.136;16.886;2023-04-05T02:57:17;-0.30;99.90
6956;DHT22;50345;51.136;16.886;2023-04-05T02:59:43;-0.40;99.90
6956;DHT22;50345;51.136;16.886;2023-04-05T03:02:09;-0.40;99.90
6956;DHT22;50345;51.136;16.886;2023-04-05T03:04:36;-0.40;99.90
6956;DHT22;50345;51.136;16.886;2023-04-05T03:07:03;-0.40;99.90
6956;DHT22;50345;51.136;16.886;2023-04-05T03:09:29;-0.40;99.90
6956;DHT22;50345;51.136;16.886;2023-04-05T03:12:04;-0.40;99.90
6956;DHT22;50345;51.136;16.886;2023-04-05T03:14:30;-0.30;99.90
6956;DHT22;50345;51.136;16.886;2023-04-05T03:16:56;-0.20;99.90
6956;DHT22;50345;51.136;16.886;2023-04-05T03:19:25;-0.20;99.90
6956;DHT22;50345;51.136;16.886;2023-04-05T03:21:51;-0.20;99.90
6956;DHT22;50345;51.136;16.886;2023-04-05T03:24:17;-0.20;99.90
6956;DHT22;50345;51.136;16.886;2023-04-05T03:26:45;-0.20;99.90
6956;DHT22;50345;51.136;16.886;2023-04-05T03:29:11;-0.10;99.90
6956;DHT22;50345;51.136;16.886;2023-04-05T03:31:36;-0.10;99.90
6956;DHT22;50345;51.136;16.886;2023-04-05T03:34:02;0.00;99.90
6956;DHT22;50345;51.136;16.886;2023-04-05T03:36:28;0.10;99.90
6956;DHT22;50345;51.136;16.886;2023-04-05T03:39:06;0.10;99.90
6956;DHT22;50345;51.136;16.886;2023-04-05T03:41:32;0.20;99.90
6956;DHT22;50345;51.136;16.886;2023-04-05T03:43:58;0.30;99.90
6956;DHT22;50345;51.136;16.886;2023-04-05T03:46:24;0.30;99.90
6956;DHT22;50345;51.136;16.886;2023-04-05T03:48:50;0.30;99.90
6956;DHT22;50345;51.136;16.886;2023-04-05T03:51:15;0.30;99.90
6956;DHT22;50345;51.136;16.886;2023-04-05T03:53:43;0.40;99.90
6956;DHT22;50345;51.136;16.886;2023-04-05T03:56:09;0.40;99.90
6956;DHT22;50345;51.136;16.886;2023-04-05T03:58:35;0.40;99.90
6956;DHT22;50345;51.136;16.886;2023-04-05T04:01:01;0.40;99.90
6956;DHT22;50345;51.136;16.886;2023-04-05T04:03:27;0.30;99.90
6956;DHT22;50345;51.136;16.886;2023-04-05T04:05:54;0.30;99.90
6956;DHT22;50345;51.136;16.886;2023-04-05T04:08:20;0.40;99.90
6956;DHT22;50345;51.136;16.886;2023-04-05T04:10:46;0.30;99.90
6956;DHT22;50345;51.136;16.886;2023-04-05T04:13:12;0.30;99.90
6956;DHT22;50345;51.136;16.886;2023-04-05T04:15:37;0.40;99.90
6956;DHT22;50345;51.136;16.886;2023-04-05T04:18:03;0.50;99.90
6956;DHT22;50345;51.136;16.886;2023-04-05T04:20:29;0.40;99.90
6956;DHT22;50345;51.136;16.886;2023-04-05T04:22:56;0.50;99.90
6956;DHT22;50345;51.136;16.886;2023-04-05T04:25:22;0.50;99.90
6956;DHT22;50345;51.136;16.886;2023-04-05T04:27:47;0.60;99.90
6956;DHT22;50345;51.136;16.886;2023-04-05T04:30:14;0.70;99.90
6956;DHT22;50345;51.136;16.886;2023-04-05T04:32:41;0.70;99.90
6956;DHT22;50345;51.136;16.886;2023-04-05T04:35:28;0.70;99.90
6956;DHT22;50345;51.136;16.886;2023-04-05T04:38:01;0.70;99.90
6956;DHT22;50345;51.136;16.886;2023-04-05T04:40:32;0.70;99.90
6956;DHT22;50345;51.136;16.886;2023-04-05T04:43:08;0.80;99.90
6956;DHT22;50345;51.136;16.886;2023-04-05T04:45:39;0.80;99.90
6956;DHT22;50345;51.136;16.886;2023-04-05T04:48:05;0.90;99.90
6956;DHT22;50345;51.136;16.886;2023-04-05T04:50:31;0.90;99.90
6956;DHT22;50345;51.136;16.886;2023-04-05T04:52:58;0.90;99.90
6956;DHT22;50345;51.136;16.886;2023-04-05T04:55:24;1.00;99.90
6956;DHT22;50345;51.136;16.886;2023-04-05T04:57:54;1.00;99.90
6956;DHT22;50345;51.136;16.886;2023-04-05T05:00:21;1.00;99.90
6956;DHT22;50345;51.136;16.886;2023-04-05T05:02:49;1.00;99.90
6956;DHT22;50345;51.136;16.886;2023-04-05T05:05:15;1.00;99.90
6956;DHT22;50345;51.136;16.886;2023-04-05T05:07:41;0.90;99.90
6956;DHT22;50345;51.136;16.886;2023-04-05T05:10:08;0.90;99.90
6956;DHT22;50345;51.136;16.886;2023-04-05T05:12:34;0.80;99.90
6956;DHT22;50345;51.136;16.886;2023-04-05T05:14:59;0.80;99.90
6956;DHT22;50345;51.136;16.886;2023-04-05T05:17:25;0.70;99.90
6956;DHT22;50345;51.136;16.886;2023-04-05T05:19:51;0.70;99.90
6956;DHT22;50345;51.136;16.886;2023-04-05T05:22:17;0.70;99.90
6956;DHT22;50345;51.136;16.886;2023-04-05T05:24:43;0.80;99.90
6956;DHT22;50345;51.136;16.886;2023-04-05T05:27:09;0.80;99.90
6956;DHT22;50345;51.136;16.886;2023-04-05T05:29:35;0.80;99.90
6956;DHT22;50345;51.136;16.886;2023-04-05T05:32:01;0.90;99.90
6956;DHT22;50345;51.136;16.886;2023-04-05T05:34:26;1.10;99.90
6956;DHT22;50345;51.136;16.886;2023-04-05T05:36:54;1.10;99.90
6956;DHT22;50345;51.136;16.886;2023-04-05T05:39:20;1.20;99.90
6956;DHT22;50345;51.136;16.886;2023-04-05T05:41:47;1.40;99.90
6956;DHT22;50345;51.136;16.886;2023-04-05T05:44:12;1.50;99.90
6956;DHT22;50345;51.136;16.886;2023-04-05T05:46:38;1.60;99.90
6956;DHT22;50345;51.136;16.886;2023-04-05T05:49:04;1.60;99.90
6956;DHT22;50345;51.136;16.886;2023-04-05T05:51:29;1.70;99.90
6956;DHT22;50345;51.136;16.886;2023-04-05T05:53:56;1.80;99.90
6956;DHT22;50345;51.136;16.886;2023-04-05T05:56:22;1.90;99.90
6956;DHT22;50345;51.136;16.886;2023-04-05T05:58:48;2.10;99.90
6956;DHT22;50345;51.136;16.886;2023-04-05T06:01:13;2.10;99.90
6956;DHT22;50345;51.136;16.886;2023-04-05T06:03:39;2.30;99.90
6956;DHT22;50345;51.136;16.886;2023-04-05T06:06:05;2.40;99.90
6956;DHT22;50345;51.136;16.886;2023-04-05T06:08:35;2.60;99.90
6956;DHT22;50345;51.136;16.886;2023-04-05T06:11:01;2.80;99.90
6956;DHT22;50345;51.136;16.886;2023-04-05T06:13:27;3.00;99.90
6956;DHT22;50345;51.136;16.886;2023-04-05T06:15:53;3.10;99.90
6956;DHT22;50345;51.136;16.886;2023-04-05T06:18:18;3.20;99.90
6956;DHT22;50345;51.136;16.886;2023-04-05T06:20:45;3.20;99.90
6956;DHT22;50345;51.136;16.886;2023-04-05T06:23:11;3.30;99.90
6956;DHT22;50345;51.136;16.886;2023-04-05T06:25:37;3.30;99.90
6956;DHT22;50345;51.136;16.886;2023-04-05T06:28:04;3.40;99.90
6956;DHT22;50345;51.136;16.886;2023-04-05T06:30:31;3.40;99.90
6956;DHT22;50345;51.136;16.886;2023-04-05T06:32:57;3.50;99.90
6956;DHT22;50345;51.136;16.886;2023-04-05T06:35:23;3.60;99.90
6956;DHT22;50345;51.136;16.886;2023-04-05T06:37:50;3.60;99.90
6956;DHT22;50345;51.136;16.886;2023-04-05T06:40:16;3.80;99.90
6956;DHT22;50345;51.136;16.886;2023-04-05T06:42:42;3.90;99.90
6956;DHT22;50345;51.136;16.886;2023-04-05T06:45:08;4.00;99.90
6956;DHT22;50345;51.136;16.886;2023-04-05T06:47:38;4.30;99.90
6956;DHT22;50345;51.136;16.886;2023-04-05T06:50:06;4.40;99.90
6956;DHT22;50345;51.136;16.886;2023-04-05T06:52:33;4.40;99.90
6956;DHT22;50345;51.136;16.886;2023-04-05T06:54:58;4.40;99.90
6956;DHT22;50345;51.136;16.886;2023-04-05T06:57:24;4.30;99.90
6956;DHT22;50345;51.136;16.886;2023-04-05T06:59:51;4.30;99.90
6956;DHT22;50345;51.136;16.886;2023-04-05T07:02:18;4.40;99.90
6956;DHT22;50345;51.136;16.886;2023-04-05T07:04:43;4.50;99.90
6956;DHT22;50345;51.136;16.886;2023-04-05T07:07:09;4.60;99.90
6956;DHT22;50345;51.136;16.886;2023-04-05T07:09:35;4.80;99.90
6956;DHT22;50345;51.136;16.886;2023-04-05T07:12:02;4.80;99.90
6956;DHT22;50345;51.136;16.886;2023-04-05T07:14:29;4.90;99.90
6956;DHT22;50345;51.136;16.886;2023-04-05T07:16:55;4.90;99.90
6956;DHT22;50345;51.136;16.886;2023-04-05T07:19:21;4.90;99.90
6956;DHT22;50345;51.136;16.886;2023-04-05T07:21:47;4.90;99.90
6956;DHT22;50345;51.136;16.886;2023-04-05T07:24:13;4.90;99.90
6956;DHT22;50345;51.136;16.886;2023-04-05T07:26:39;4.90;99.90
6956;DHT22;50345;51.136;16.886;2023-04-05T07:29:04;5.00;99.90
6956;DHT22;50345;51.136;16.886;2023-04-05T07:31:31;5.10;99.90
6956;DHT22;50345;51.136;16.886;2023-04-05T07:36:24;5.30;99.90
6956;DHT22;50345;51.136;16.886;2023-04-05T07:38:54;5.40;99.90
6956;DHT22;50345;51.136;16.886;2023-04-05T07:41:20;5.40;99.90
6956;DHT22;50345;51.136;16.886;2023-04-05T07:43:48;5.30;99.90
6956;DHT22;50345;51.136;16.886;2023-04-05T07:46:13;5.10;99.90
6956;DHT22;50345;51.136;16.886;2023-04-05T07:48:39;5.00;99.90
6956;DHT22;50345;51.136;16.886;2023-04-05T07:51:06;4.90;99.90
6956;DHT22;50345;51.136;16.886;2023-04-05T07:53:33;4.90;99.90
6956;DHT22;50345;51.136;16.886;2023-04-05T07:56:02;5.00;99.90
6956;DHT22;50345;51.136;16.886;2023-04-05T07:58:28;5.10;99.90
6956;DHT22;50345;51.136;16.886;2023-04-05T08:01:04;5.40;99.90
6956;DHT22;50345;51.136;16.886;2023-04-05T08:03:30;5.50;99.90
6956;DHT22;50345;51.136;16.886;2023-04-05T08:05:57;5.70;99.90
6956;DHT22;50345;51.136;16.886;2023-04-05T08:08:23;5.90;99.90
6956;DHT22;50345;51.136;16.886;2023-04-05T08:10:49;6.00;99.90
6956;DHT22;50345;51.136;16.886;2023-04-05T08:13:15;6.20;99.40
6956;DHT22;50345;51.136;16.886;2023-04-05T08:15:41;6.50;95.30
6956;DHT22;50345;51.136;16.886;2023-04-05T08:18:07;6.50;95.60
6956;DHT22;50345;51.136;16.886;2023-04-05T08:20:32;6.50;95.40
6956;DHT22;50345;51.136;16.886;2023-04-05T08:23:04;6.60;95.40
6956;DHT22;50345;51.136;16.886;2023-04-05T08:25:29;6.70;94.90
6956;DHT22;50345;51.136;16.886;2023-04-05T08:27:55;6.90;93.70
6956;DHT22;50345;51.136;16.886;2023-04-05T08:30:21;7.00;93.00
6956;DHT22;50345;51.136;16.886;2023-04-05T08:32:48;7.00;91.30
6956;DHT22;50345;51.136;16.886;2023-04-05T08:35:14;7.10;91.20
6956;DHT22;50345;51.136;16.886;2023-04-05T08:37:40;7.20;90.30
6956;DHT22;50345;51.136;16.886;2023-04-05T08:42:41;7.50;82.00
6956;DHT22;50345;51.136;16.886;2023-04-05T08:45:10;7.60;83.30
6956;DHT22;50345;51.136;16.886;2023-04-05T08:47:38;7.60;81.60
6956;DHT22;50345;51.136;16.886;2023-04-05T08:50:04;7.70;78.50
6956;DHT22;50345;51.136;16.886;2023-04-05T08:52:31;7.90;77.50
6956;DHT22;50345;51.136;16.886;2023-04-05T08:54:57;8.10;75.10
6956;DHT22;50345;51.136;16.886;2023-04-05T08:57:28;8.90;69.30
6956;DHT22;50345;51.136;16.886;2023-04-05T08:59:56;9.10;70.20
6956;DHT22;50345;51.136;16.886;2023-04-05T09:02:24;9.80;68.20
6956;DHT22;50345;51.136;16.886;2023-04-05T09:04:51;10.90;62.60
6956;DHT22;50345;51.136;16.886;2023-04-05T09:07:19;11.40;54.50
6956;DHT22;50345;51.136;16.886;2023-04-05T09:09:48;11.30;54.60
6956;DHT22;50345;51.136;16.886;2023-04-05T09:12:19;11.20;54.40
6956;DHT22;50345;51.136;16.886;2023-04-05T09:14:48;11.70;53.10
6956;DHT22;50345;51.136;16.886;2023-04-05T09:17:16;13.80;50.30
6956;DHT22;50345;51.136;16.886;2023-04-05T09:19:44;13.80;50.80
6956;DHT22;50345;51.136;16.886;2023-04-05T09:22:10;16.50;43.30
6956;DHT22;50345;51.136;16.886;2023-04-05T09:24:41;16.50;40.80
6956;DHT22;50345;51.136;16.886;2023-04-05T09:27:12;16.30;41.70
6956;DHT22;50345;51.136;16.886;2023-04-05T09:29:39;15.40;41.40
6956;DHT22;50345;51.136;16.886;2023-04-05T09:32:06;14.10;41.40
6956;DHT22;50345;51.136;16.886;2023-04-05T09:34:33;13.20;42.10
6956;DHT22;50345;51.136;16.886;2023-04-05T09:36:59;12.50;43.70
6956;DHT22;50345;51.136;16.886;2023-04-05T09:39:32;12.40;45.40
6956;DHT22;50345;51.136;16.886;2023-04-05T09:42:17;14.20;44.40
6956;DHT22;50345;51.136;16.886;2023-04-05T09:44:56;15.50;42.00
6956;DHT22;50345;51.136;16.886;2023-04-05T09:47:25;17.10;38.50
6956;DHT22;50345;51.136;16.886;2023-04-05T09:49:56;17.90;36.80
6956;DHT22;50345;51.136;16.886;2023-04-05T09:54:47;18.90;35.60
6956;DHT22;50345;51.136;16.886;2023-04-05T09:57:15;18.00;35.60
6956;DHT22;50345;51.136;16.886;2023-04-05T09:59:42;16.60;36.30
6956;DHT22;50345;51.136;16.886;2023-04-05T10:02:09;17.20;38.00
6956;DHT22;50345;51.136;16.886;2023-04-05T10:07:07;17.80;37.00
6956;DHT22;50345;51.136;16.886;2023-04-05T10:09:33;17.20;36.80
6956;DHT22;50345;51.136;16.886;2023-04-05T10:12:00;16.00;37.20
6956;DHT22;50345;51.136;16.886;2023-04-05T10:14:27;14.90;38.90
6956;DHT22;50345;51.136;16.886;2023-04-05T10:16:58;13.50;41.00
6956;DHT22;50345;51.136;16.886;2023-04-05T10:19:40;13.20;42.70
6956;DHT22;50345;51.136;16.886;2023-04-05T10:22:13;13.70;42.80
6956;DHT22;50345;51.136;16.886;2023-04-05T10:25:00;17.80;39.00
6956;DHT22;50345;51.136;16.886;2023-04-05T10:27:31;20.20;35.80
6956;DHT22;50345;51.136;16.886;2023-04-05T10:30:07;20.20;36.10
6956;DHT22;50345;51.136;16.886;2023-04-05T10:35:32;17.60;36.90
6956;DHT22;50345;51.136;16.886;2023-04-05T10:38:34;16.10;38.00
6956;DHT22;50345;51.136;16.886;2023-04-05T10:40:54;15.20;38.20
6956;DHT22;50345;51.136;16.886;2023-04-05T10:43:24;15.10;39.00
6956;DHT22;50345;51.136;16.886;2023-04-05T10:45:52;14.80;39.30
6956;DHT22;50345;51.136;16.886;2023-04-05T10:51:00;14.90;39.80
6956;DHT22;50345;51.136;16.886;2023-04-05T10:53:26;14.90;39.80
6956;DHT22;50345;51.136;16.886;2023-04-05T10:55:52;14.60;39.60
6956;DHT22;50345;51.136;16.886;2023-04-05T10:58:21;14.80;40.10
6956;DHT22;50345;51.136;16.886;2023-04-05T11:00:47;15.90;38.70
6956;DHT22;50345;51.136;16.886;2023-04-05T11:06:23;15.60;37.10
6956;DHT22;50345;51.136;16.886;2023-04-05T11:08:54;14.70;37.90
6956;DHT22;50345;51.136;16.886;2023-04-05T11:11:21;14.10;39.30
6956;DHT22;50345;51.136;16.886;2023-04-05T11:13:53;13.40;40.10
6956;DHT22;50345;51.136;16.886;2023-04-05T11:16:20;12.50;40.70
6956;DHT22;50345;51.136;16.886;2023-04-05T11:18:50;11.50;42.60
6956;DHT22;50345;51.136;16.886;2023-04-05T11:21:25;11.50;43.10
6956;DHT22;50345;51.136;16.886;2023-04-05T11:24:05;11.30;43.80
6956;DHT22;50345;51.136;16.886;2023-04-05T11:29:14;11.10;44.60
6956;DHT22;50345;51.136;16.886;2023-04-05T11:31:59;11.00;45.40
6956;DHT22;50345;51.136;16.886;2023-04-05T11:34:25;11.10;46.20
6956;DHT22;50345;51.136;16.886;2023-04-05T11:36:51;13.70;45.30
6956;DHT22;50345;51.136;16.886;2023-04-05T11:41:46;17.70;38.60
6956;DHT22;50345;51.136;16.886;2023-04-05T11:44:15;19.60;35.00
6956;DHT22;50345;51.136;16.886;2023-04-05T11:46:42;20.50;33.50
6956;DHT22;50345;51.136;16.886;2023-04-05T11:49:07;21.20;32.00
6956;DHT22;50345;51.136;16.886;2023-04-05T11:51:33;21.20;33.20
6956;DHT22;50345;51.136;16.886;2023-04-05T11:53:59;20.40;33.20
6956;DHT22;50345;51.136;16.886;2023-04-05T11:56:25;19.30;33.70
6956;DHT22;50345;51.136;16.886;2023-04-05T11:58:51;18.00;34.70
6956;DHT22;50345;51.136;16.886;2023-04-05T12:01:17;16.60;35.80
6956;DHT22;50345;51.136;16.886;2023-04-05T12:03:42;15.30;36.50
6956;DHT22;50345;51.136;16.886;2023-04-05T12:06:08;14.10;38.00
6956;DHT22;50345;51.136;16.886;2023-04-05T12:11:09;12.60;44.00
6956;DHT22;50345;51.136;16.886;2023-04-05T12:13:37;12.00;46.90
6956;DHT22;50345;51.136;16.886;2023-04-05T12:16:04;11.70;48.00
6956;DHT22;50345;51.136;16.886;2023-04-05T12:18:32;11.50;48.70
6956;DHT22;50345;51.136;16.886;2023-04-05T12:21:03;11.60;48.40
6956;DHT22;50345;51.136;16.886;2023-04-05T12:23:29;12.10;48.20
6956;DHT22;50345;51.136;16.886;2023-04-05T12:25:56;12.90;48.60
6956;DHT22;50345;51.136;16.886;2023-04-05T12:28:22;14.50;47.50
6956;DHT22;50345;51.136;16.886;2023-04-05T12:30:52;16.50;45.40
6956;DHT22;50345;51.136;16.886;2023-04-05T12:33:29;18.10;41.70
6956;DHT22;50345;51.136;16.886;2023-04-05T12:35:55;18.80;39.50
6956;DHT22;50345;51.136;16.886;2023-04-05T12:38:25;18.50;37.30
6956;DHT22;50345;51.136;16.886;2023-04-05T12:40:54;18.00;37.40
6956;DHT22;50345;51.136;16.886;2023-04-05T12:43:23;17.50;36.90
6956;DHT22;50345;51.136;16.886;2023-04-05T12:45:53;16.70;37.30
6956;DHT22;50345;51.136;16.886;2023-04-05T12:48:22;16.00;38.10
6956;DHT22;50345;51.136;16.886;2023-04-05T12:50:50;15.20;38.30
6956;DHT22;50345;51.136;16.886;2023-04-05T12:53:23;14.30;39.30
6956;DHT22;50345;51.136;16.886;2023-04-05T12:55:54;13.50;41.40
6956;DHT22;50345;51.136;16.886;2023-04-05T12:58:22;12.80;43.20
6956;DHT22;50345;51.136;16.886;2023-04-05T13:00:48;12.10;44.70
6956;DHT22;50345;51.136;16.886;2023-04-05T13:03:18;11.60;46.00
6956;DHT22;50345;51.136;16.886;2023-04-05T13:05:45;11.30;47.20
6956;DHT22;50345;51.136;16.886;2023-04-05T13:08:12;10.80;50.10
6956;DHT22;50345;51.136;16.886;2023-04-05T13:10:38;10.30;53.00
6956;DHT22;50345;51.136;16.886;2023-04-05T13:13:04;10.00;54.90
6956;DHT22;50345;51.136;16.886;2023-04-05T13:15:29;9.70;57.80
6956;DHT22;50345;51.136;16.886;2023-04-05T13:17:56;9.50;59.50
6956;DHT22;50345;51.136;16.886;2023-04-05T13:20:22;9.40;63.70
6956;DHT22;50345;51.136;16.886;2023-04-05T13:22:47;9.40;69.30
6956;DHT22;50345;51.136;16.886;2023-04-05T13:25:14;9.30;76.40
6956;DHT22;50345;51.136;16.886;2023-04-05T13:27:40;9.20;84.20
6956;DHT22;50345;51.136;16.886;2023-04-05T13:30:06;9.10;88.40
6956;DHT22;50345;51.136;16.886;2023-04-05T13:32:33;9.00;90.60
6956;DHT22;50345;51.136;16.886;2023-04-05T13:34:58;8.90;92.50
6956;DHT22;50345;51.136;16.886;2023-04-05T13:37:24;8.90;94.90
6956;DHT22;50345;51.136;16.886;2023-04-05T13:39:50;8.70;97.40
6956;DHT22;50345;51.136;16.886;2023-04-05T13:42:16;8.70;97.40
6956;DHT22;50345;51.136;16.886;2023-04-05T13:44:42;8.60;96.80
6956;DHT22;50345;51.136;16.886;2023-04-05T13:47:08;8.70;96.70
6956;DHT22;50345;51.136;16.886;2023-04-05T13:49:34;8.90;96.70
6956;DHT22;50345;51.136;16.886;2023-04-05T13:51:59;9.30;96.90
6956;DHT22;50345;51.136;16.886;2023-04-05T13:54:25;9.90;94.20
6956;DHT22;50345;51.136;16.886;2023-04-05T13:56:51;10.30;90.50
6956;DHT22;50345;51.136;16.886;2023-04-05T13:59:16;10.70;88.60
6956;DHT22;50345;51.136;16.886;2023-04-05T14:01:44;11.20;81.30
6956;DHT22;50345;51.136;16.886;2023-04-05T14:04:10;11.70;79.60
6956;DHT22;50345;51.136;16.886;2023-04-05T14:06:36;12.40;73.40
6956;DHT22;50345;51.136;16.886;2023-04-05T14:09:02;13.30;67.90
6956;DHT22;50345;51.136;16.886;2023-04-05T14:11:27;15.20;58.30
6956;DHT22;50345;51.136;16.886;2023-04-05T14:16:19;20.20;42.50
6956;DHT22;50345;51.136;16.886;2023-04-05T14:18:45;21.00;41.10
6956;DHT22;50345;51.136;16.886;2023-04-05T14:21:11;21.10;39.90
6956;DHT22;50345;51.136;16.886;2023-04-05T14:23:36;20.20;39.30
6956;DHT22;50345;51.136;16.886;2023-04-05T14:26:02;19.50;39.70
6956;DHT22;50345;51.136;16.886;2023-04-05T14:28:28;20.00;39.80
6956;DHT22;50345;51.136;16.886;2023-04-05T14:30:53;20.90;38.70
6956;DHT22;50345;51.136;16.886;2023-04-05T14:33:19;20.40;37.90
6956;DHT22;50345;51.136;16.886;2023-04-05T14:35:45;20.50;38.20
6956;DHT22;50345;51.136;16.886;2023-04-05T14:38:11;20.40;37.50
6956;DHT22;50345;51.136;16.886;2023-04-05T14:40:36;19.70;37.60
6956;DHT22;50345;51.136;16.886;2023-04-05T14:43:02;19.80;37.60
6956;DHT22;50345;51.136;16.886;2023-04-05T14:45:28;20.00;36.60
6956;DHT22;50345;51.136;16.886;2023-04-05T14:47:54;20.20;36.60
6956;DHT22;50345;51.136;16.886;2023-04-05T14:50:20;20.50;36.50
6956;DHT22;50345;51.136;16.886;2023-04-05T14:52:46;20.70;36.30
6956;DHT22;50345;51.136;16.886;2023-04-05T14:55:12;21.20;35.60
6956;DHT22;50345;51.136;16.886;2023-04-05T14:57:41;22.50;33.20
6956;DHT22;50345;51.136;16.886;2023-04-05T15:00:08;23.50;31.60
6956;DHT22;50345;51.136;16.886;2023-04-05T15:02:38;24.10;31.00
6956;DHT22;50345;51.136;16.886;2023-04-05T15:05:04;24.10;31.50
6956;DHT22;50345;51.136;16.886;2023-04-05T15:07:30;24.20;30.70
6956;DHT22;50345;51.136;16.886;2023-04-05T15:09:56;24.10;30.50
6956;DHT22;50345;51.136;16.886;2023-04-05T15:12:22;22.50;30.90
6956;DHT22;50345;51.136;16.886;2023-04-05T15:14:48;22.30;31.90
6956;DHT22;50345;51.136;16.886;2023-04-05T15:17:17;21.50;31.00
6956;DHT22;50345;51.136;16.886;2023-04-05T15:19:43;19.80;32.40
6956;DHT22;50345;51.136;16.886;2023-04-05T15:22:09;18.40;33.90
6956;DHT22;50345;51.136;16.886;2023-04-05T15:24:38;17.60;35.50
6956;DHT22;50345;51.136;16.886;2023-04-05T15:27:08;16.00;37.30
6956;DHT22;50345;51.136;16.886;2023-04-05T15:29:34;14.80;39.60
6956;DHT22;50345;51.136;16.886;2023-04-05T15:32:00;13.80;41.00
6956;DHT22;50345;51.136;16.886;2023-04-05T15:34:28;12.80;42.60
6956;DHT22;50345;51.136;16.886;2023-04-05T15:36:54;12.10;43.80
6956;DHT22;50345;51.136;16.886;2023-04-05T15:39:21;11.60;44.70
6956;DHT22;50345;51.136;16.886;2023-04-05T15:41:47;11.30;45.60
6956;DHT22;50345;51.136;16.886;2023-04-05T15:44:13;10.80;45.80
6956;DHT22;50345;51.136;16.886;2023-04-05T15:46:39;10.40;46.60
6956;DHT22;50345;51.136;16.886;2023-04-05T15:49:05;10.00;47.50
6956;DHT22;50345;51.136;16.886;2023-04-05T15:51:32;9.50;49.00
6956;DHT22;50345;51.136;16.886;2023-04-05T15:53:58;9.30;50.40
6956;DHT22;50345;51.136;16.886;2023-04-05T15:56:24;9.00;52.30
6956;DHT22;50345;51.136;16.886;2023-04-05T15:58:50;8.80;53.80
6956;DHT22;50345;51.136;16.886;2023-04-05T16:01:15;8.90;54.80
6956;DHT22;50345;51.136;16.886;2023-04-05T16:03:41;9.00;54.80
6956;DHT22;50345;51.136;16.886;2023-04-05T16:06:07;9.30;55.20
6956;DHT22;50345;51.136;16.886;2023-04-05T16:08:32;10.50;52.70
6956;DHT22;50345;51.136;16.886;2023-04-05T16:10:58;11.10;50.90
6956;DHT22;50345;51.136;16.886;2023-04-05T16:13:24;11.10;51.20
6956;DHT22;50345;51.136;16.886;2023-04-05T16:15:49;11.60;50.40
6956;DHT22;50345;51.136;16.886;2023-04-05T16:18:15;11.80;49.00